Time;durP1;ratioP1;P1;durP2;ratioP2;P2;SDS_P1;SDS_P2;PMS_P1;PMS_P2;Temp;Humidity;BMP_temperature;BMP_pressure;BME280_temperature;BME280_humidity;BME280_pressure;Samples;Min_cycle;Max_cycle;Signal;HPM_P1;HPM_P2
2022/08/18 00:00:40;;;;;;;5.95;3.85;;;;;;;25.67;38.72;99317.22;7632960;32;36803;-78
2022/08/18 00:05:00;;;;;;;6.95;3.70;;;;;;;25.62;39.44;99311.22;7632780;32;39509;-78
2022/08/18 00:09:16;;;;;;;5.47;3.87;;;;;;;25.57;39.56;99309.56;7619242;32;39664;-77
2022/08/18 00:13:33;;;;;;;8.68;4.32;;;;;;;25.86;38.88;99295.84;7632478;32;37736;-77
2022/08/18 00:17:49;;;;;;;7.95;4.55;;;;;;;25.97;38.83;99293.16;7632201;32;37800;-76
2022/08/18 00:22:06;;;;;;;8.00;4.72;;;;;;;26.23;38.54;99290.16;7632513;32;40082;-80
2022/08/18 00:26:23;;;;;;;8.98;4.85;;;;;;;26.11;39.15;99290.47;7632456;32;39925;-77
2022/08/18 00:30:39;;;;;;;15.38;4.95;;;;;;;26.24;38.91;99269.41;7632310;32;37991;-78
2022/08/18 00:34:55;;;;;;;11.07;4.30;;;;;;;26.21;39.12;99278.56;7632757;32;36025;-78
2022/08/18 00:39:11;;;;;;;5.93;3.92;;;;;;;25.67;39.92;99291.31;7631960;32;39481;-78
2022/08/18 00:43:28;;;;;;;5.87;4.03;;;;;;;25.69;40.31;99286.16;7632298;32;40780;-77
2022/08/18 00:47:44;;;;;;;7.87;4.70;;;;;;;25.44;42.67;99297.09;7632207;32;38098;-77
2022/08/18 00:52:00;;;;;;;7.07;4.53;;;;;;;25.36;41.68;99298.22;7631799;32;36749;-78
2022/08/18 00:56:33;;;;;;;9.05;4.35;;;;;;;25.34;42.53;99297.81;7631978;32;37885;-78
2022/08/18 01:00:50;;;;;;;4.75;3.37;;;;;;;25.25;43.79;99306.44;7619531;32;40144;-76
2022/08/18 01:05:12;;;;;;;7.45;4.10;;;;;;;25.08;44.58;99303.09;7619049;32;39344;-77
2022/08/18 01:09:28;;;;;;;6.45;3.85;;;;;;;25.12;44.12;99298.34;7632031;32;37827;-78
2022/08/18 01:13:44;;;;;;;6.55;4.15;;;;;;;25.05;44.31;99309.41;7631581;32;39766;-77
2022/08/18 01:22:48;;;;;;;7.20;4.18;;;;;;;25.01;43.74;99316.97;7631783;32;38734;-77
2022/08/18 01:27:04;;;;;;;7.15;4.50;;;;;;;24.79;44.25;99323.47;7631811;32;37242;-77
2022/08/18 01:31:39;;;;;;;7.28;4.40;;;;;;;24.86;43.68;99318.75;7631644;32;40562;-78
2022/08/18 01:36:17;;;;;;;9.25;5.03;;;;;;;24.69;44.25;99328.50;7631579;32;40879;-78
2022/08/18 01:40:33;;;;;;;12.45;5.65;;;;;;;24.92;43.39;99325.63;7618722;32;37912;-77
2022/08/18 01:45:11;;;;;;;7.45;4.68;;;;;;;24.81;43.73;99330.25;7631122;32;37378;-76
2022/08/18 01:49:27;;;;;;;8.25;4.87;;;;;;;24.59;44.95;99331.16;7631291;32;39064;-77
2022/08/18 01:53:43;;;;;;;10.15;5.80;;;;;;;24.62;45.04;99331.19;7631256;32;40056;-78
2022/08/18 01:58:00;;;;;;;9.32;5.03;;;;;;;24.71;44.33;99337.28;7631113;32;37857;-78
2022/08/18 02:02:23;;;;;;;8.85;5.43;;;;;;;24.72;44.68;99319.38;7631011;32;36755;-76
2022/08/18 02:06:40;;;;;;;9.52;5.65;;;;;;;24.70;44.83;99318.97;7618275;32;39464;-77
2022/08/18 02:11:03;;;;;;;9.80;5.95;;;;;;;25.01;43.87;99319.75;7616579;32;40570;-77
2022/08/18 02:15:19;;;;;;;11.18;5.90;;;;;;;24.95;44.18;99329.63;7630425;32;38624;-78
2022/08/18 02:19:38;;;;;;;12.20;6.22;;;;;;;25.01;44.29;99336.47;7630825;32;37041;-77
2022/08/18 02:23:54;;;;;;;14.75;6.22;;;;;;;25.05;45.16;99326.16;7630540;32;40331;-78
2022/08/18 02:28:10;;;;;;;13.07;6.93;;;;;;;25.27;45.32;99315.28;7630838;32;39808;-78
2022/08/18 02:32:27;;;;;;;11.30;6.47;;;;;;;25.29;46.08;99318.47;7633641;32;37966;-78
2022/08/18 02:36:44;;;;;;;8.40;4.85;;;;;;;25.44;45.56;99325.81;7633732;32;37367;-77
2022/08/18 02:41:02;;;;;;;7.45;5.07;;;;;;;24.77;47.35;99337.78;7633016;32;39067;-78
2022/08/18 02:45:19;;;;;;;12.35;6.07;;;;;;;24.73;47.42;99348.06;7632325;32;38953;-77
2022/08/18 02:49:35;;;;;;;8.25;5.50;;;;;;;24.95;46.20;99348.34;7633519;32;37952;-76
2022/08/18 02:53:52;;;;;;;10.40;6.30;;;;;;;25.16;45.56;99337.41;7624853;32;37774;-76
2022/08/18 02:58:08;;;;;;;9.45;6.37;;;;;;;25.30;45.40;99339.59;7633166;32;40148;-77
2022/08/18 03:02:24;;;;;;;12.48;6.35;;;;;;;25.27;45.84;99343.16;7632908;32;40174;-74
2022/08/18 03:06:41;;;;;;;12.23;6.85;;;;;;;25.42;45.48;99339.34;7633178;32;38043;-75
2022/08/18 03:10:59;;;;;;;11.23;6.15;;;;;;;25.57;45.21;99345.84;7632134;32;37066;-75
2022/08/18 03:15:15;;;;;;;11.05;6.97;;;;;;;25.65;45.06;99347.53;7633597;32;39378;-75
2022/08/18 03:19:31;;;;;;;10.38;6.53;;;;;;;25.79;44.74;99346.84;7633309;32;40003;-75
2022/08/18 03:23:50;;;;;;;11.32;6.95;;;;;;;25.69;45.14;99333.59;7633087;32;38030;-76
2022/08/18 03:28:16;;;;;;;13.10;7.12;;;;;;;25.70;45.32;99349.19;7632533;32;36816;-75
2022/08/18 03:32:32;;;;;;;13.40;6.90;;;;;;;25.86;44.69;99358.06;7632048;32;39789;-75
2022/08/18 03:36:49;;;;;;;12.63;6.90;;;;;;;25.84;44.75;99354.88;7632832;32;39790;-75
2022/08/18 03:41:07;;;;;;;11.55;7.10;;;;;;;25.88;44.78;99342.94;7629127;32;38692;-74
2022/08/18 03:45:27;;;;;;;11.20;7.53;;;;;;;25.89;44.83;99356.53;7615929;32;36706;-75
2022/08/18 03:49:44;;;;;;;12.88;6.62;;;;;;;25.81;45.12;99361.22;7616097;32;38996;-74
2022/08/18 03:54:03;;;;;;;9.90;6.75;;;;;;;25.67;45.97;99366.69;7629264;32;40637;-75
2022/08/18 03:58:19;;;;;;;10.73;7.12;;;;;;;25.72;45.35;99379.50;7632541;32;36922;-75
2022/08/18 04:02:35;;;;;;;10.55;6.47;;;;;;;25.69;45.52;99361.50;7631540;32;38139;-75
2022/08/18 04:06:59;;;;;;;14.23;7.30;;;;;;;25.72;45.80;99338.41;7623449;32;39454;-72
2022/08/18 04:11:15;;;;;;;12.93;6.75;;;;;;;25.72;45.90;99330.03;7632112;32;40001;-74
2022/08/18 04:15:32;;;;;;;11.38;6.72;;;;;;;25.71;45.97;99350.75;7631929;32;38673;-73
2022/08/18 04:19:48;;;;;;;11.98;7.25;;;;;;;25.81;45.63;99344.47;7632457;32;37699;-75
2022/08/18 04:24:06;;;;;;;13.15;6.80;;;;;;;25.80;45.85;99348.47;7631648;32;39320;-75
2022/08/18 04:28:22;;;;;;;11.68;7.00;;;;;;;25.68;46.87;99357.09;7632022;32;40988;-75
2022/08/18 04:32:38;;;;;;;11.25;6.75;;;;;;;25.71;46.62;99355.56;7632239;32;39189;-75
2022/08/18 04:36:54;;;;;;;13.60;6.93;;;;;;;25.68;46.63;99357.09;7632406;32;37362;-75
2022/08/18 04:41:13;;;;;;;11.27;6.85;;;;;;;25.78;46.31;99361.97;7631572;32;40174;-74
2022/08/18 04:45:29;;;;;;;14.55;7.62;;;;;;;25.69;46.95;99369.88;7631405;32;40093;-75
2022/08/18 04:49:45;;;;;;;10.88;6.97;;;;;;;25.84;46.53;99366.03;7631466;32;37848;-75
2022/08/18 04:54:01;;;;;;;11.85;7.15;;;;;;;25.84;46.60;99357.66;7630171;32;37832;-75
2022/08/18 04:58:19;;;;;;;14.87;7.12;;;;;;;25.96;46.04;99361.41;7631444;32;39366;-75
2022/08/18 05:02:35;;;;;;;10.32;6.87;;;;;;;25.84;46.38;99360.47;7631448;32;40001;-75
2022/08/18 05:06:51;;;;;;;14.80;7.30;;;;;;;26.09;45.70;99351.50;7631380;32;37859;-76
2022/08/18 05:11:08;;;;;;;11.68;6.85;;;;;;;26.16;45.44;99357.12;7630632;32;37843;-75
2022/08/18 05:15:25;;;;;;;20.60;7.53;;;;;;;26.35;44.88;99356.06;7631255;32;40476;-76
2022/08/18 05:19:42;;;;;;;10.73;6.93;;;;;;;26.40;44.96;99354.91;7631567;32;40864;-77
2022/08/18 05:23:59;;;;;;;15.48;7.37;;;;;;;26.72;44.08;99348.75;7631114;32;36973;-76
2022/08/18 05:28:17;;;;;;;11.05;6.82;;;;;;;26.57;44.66;99353.41;7631288;32;38057;-75
2022/08/18 05:32:38;;;;;;;13.27;7.60;;;;;;;26.85;44.17;99346.37;7618111;32;39372;-73
2022/08/18 05:37:22;;;;;;;15.20;7.62;;;;;;;27.01;43.76;99363.66;7631256;32;40022;-74
2022/08/18 05:41:45;;;;;;;17.08;7.45;;;;;;;27.19;43.54;99351.72;7630942;32;38254;-75
2022/08/18 05:46:04;;;;;;;11.73;6.95;;;;;;;27.29;43.25;99351.78;7617972;32;37125;-74
2022/08/18 05:50:23;;;;;;;12.35;7.50;;;;;;;27.62;42.63;99351.84;7631235;32;39246;-79
2022/08/18 05:59:25;;;;;;;13.52;7.18;;;;;;;27.65;43.63;99357.44;7619524;32;38722;-75
2022/08/18 06:03:54;;;;;;;10.02;6.80;;;;;;;27.89;42.46;99357.88;7629646;32;37200;-72
2022/08/18 06:08:13;;;;;;;13.98;7.00;;;;;;;28.18;41.87;99366.25;7617406;32;39475;-75
2022/08/18 06:12:54;;;;;;;16.05;7.47;;;;;;;28.20;41.60;99361.06;7616242;32;39984;-73
2022/08/18 06:17:31;;;;;;;14.60;7.32;;;;;;;28.45;41.15;99352.63;7612674;32;38362;-74
2022/08/18 06:21:59;;;;;;;17.37;7.22;;;;;;;28.50;40.88;99360.63;7630132;32;37088;-73
2022/08/18 06:26:47;;;;;;;11.57;6.75;;;;;;;28.68;40.32;99366.19;7630192;32;39029;-73
2022/08/18 06:31:16;;;;;;;16.10;6.47;;;;;;;28.99;39.91;99366.50;7626025;32;40786;-74
2022/08/18 06:36:01;;;;;;;10.85;6.85;;;;;;;28.98;39.65;99359.28;7629775;32;38405;-74
2022/08/18 06:40:17;;;;;;;9.68;6.28;;;;;;;29.15;39.52;99355.59;7613772;32;37328;-74
2022/08/18 06:44:36;;;;;;;13.52;6.32;;;;;;;29.19;39.66;99353.59;7629553;32;39352;-74
2022/08/18 06:48:58;;;;;;;11.63;6.53;;;;;;;29.12;39.28;99355.63;7616185;32;39028;-72
2022/08/18 06:53:14;;;;;;;;;;;;;;;29.61;38.17;99348.13;7618119;32;37548;-73
2022/08/18 06:57:57;;;;;;;13.05;7.10;;;;;;;29.52;38.45;99350.59;7629019;32;37801;-73
2022/08/18 07:02:44;;;;;;;13.10;6.70;;;;;;;29.35;38.67;99352.31;7629774;32;39286;-73
2022/08/18 07:07:19;;;;;;;13.05;6.80;;;;;;;29.78;38.25;99338.00;7629512;32;39928;-73
2022/08/18 07:11:42;;;;;;;11.40;6.37;;;;;;;30.06;37.23;99333.34;7617084;32;38096;-74
2022/08/18 07:16:27;;;;;;;;;;;;;;;30.04;37.39;99341.41;7631827;32;37664;-76
2022/08/18 07:21:03;;;;;;;12.18;6.62;;;;;;;30.50;36.39;99326.09;7629693;32;40829;-76
2022/08/18 07:25:24;;;;;;;14.70;6.57;;;;;;;30.38;36.79;99333.06;7632964;32;40799;-75
2022/08/18 07:29:59;;;;;;;11.15;6.28;;;;;;;30.77;36.10;99339.44;7633104;32;38430;-74
2022/08/18 07:34:21;;;;;;;14.32;7.07;;;;;;;30.94;35.87;99334.84;7621467;32;37141;-76
2022/08/18 07:38:44;;;;;;;;;;;;;;;30.77;36.02;99345.06;7620309;32;39344;-75
2022/08/18 07:43:05;;;;;;;13.10;7.12;;;;;;;30.84;35.85;99345.78;7619567;32;40278;-75
2022/08/18 07:47:35;;;;;;;12.07;6.35;;;;;;;31.01;35.30;99334.75;7619832;32;37938;-75
2022/08/18 07:52:20;;;;;;;12.37;6.55;;;;;;;31.38;34.91;99342.28;7619502;32;37183;-73
2022/08/18 07:57:02;;;;;;;12.57;6.65;;;;;;;31.73;34.20;99345.78;7623471;32;39750;-74
2022/08/18 08:01:30;;;;;;;14.07;6.50;;;;;;;31.79;33.83;99358.19;7619276;32;40099;-73
2022/08/18 08:05:54;;;;;;;20.55;6.60;;;;;;;31.88;33.70;99356.84;7632572;32;37609;-74
2022/08/18 08:10:38;;;;;;;9.95;6.47;;;;;;;31.87;33.71;99366.53;7632660;32;37328;-73
2022/08/18 08:15:06;;;;;;;11.43;6.03;;;;;;;32.04;33.50;99365.41;7632349;32;39127;-74
2022/08/18 08:19:44;;;;;;;17.62;6.60;;;;;;;32.10;33.27;99363.75;7618211;32;39567;-83
2022/08/18 08:24:35;;;;;;;10.20;6.25;;;;;;;32.42;32.39;99361.56;7631976;32;38041;-83
2022/08/18 08:29:12;;;;;;;9.68;6.40;;;;;;;32.81;31.46;99365.69;7631284;32;37375;-82
2022/08/18 08:33:44;;;;;;;11.93;6.30;;;;;;;32.82;31.94;99372.91;7632548;32;39047;-83
2022/08/18 08:38:08;;;;;;;9.60;6.18;;;;;;;32.52;31.86;99366.22;7632419;32;40643;-84
2022/08/18 08:42:52;;;;;;;12.20;6.20;;;;;;;32.30;32.89;99372.25;7612192;32;37035;-79
2022/08/18 08:47:16;;;;;;;11.48;5.95;;;;;;;32.69;31.67;99353.03;7619247;32;37933;-77
2022/08/18 08:51:45;;;;;;;17.52;6.40;;;;;;;33.11;31.06;99356.19;7620073;32;39406;-78
2022/08/18 08:56:13;;;;;;;10.85;6.12;;;;;;;33.12;30.56;99335.19;7631812;32;40790;-79
2022/08/18 09:00:30;;;;;;;16.60;6.87;;;;;;;33.51;30.58;99330.69;7618594;32;38741;-77
2022/08/18 09:04:54;;;;;;;12.25;5.70;;;;;;;33.55;30.18;99327.75;7618531;32;37849;-77
2022/08/18 09:09:43;;;;;;;14.27;5.80;;;;;;;34.17;29.00;99327.88;7631864;32;39918;-80
2022/08/18 09:14:37;;;;;;;11.95;5.70;;;;;;;34.60;28.46;99332.38;7631477;32;40745;-78
2022/08/18 09:19:19;;;;;;;10.90;6.43;;;;;;;34.69;27.98;99324.03;7629953;32;38423;-78
2022/08/18 09:23:41;;;;;;;13.48;5.32;;;;;;;34.57;27.87;99316.28;7631226;32;37935;-77
2022/08/18 09:28:29;;;;;;;9.60;5.20;;;;;;;35.12;27.75;99313.50;7630539;32;40178;-78
2022/08/18 09:32:55;;;;;;;9.45;5.45;;;;;;;35.49;27.09;99306.25;7598014;32;40826;-78
2022/08/18 09:37:18;;;;;;;14.25;6.03;;;;;;;35.86;26.41;99312.38;7630385;32;37668;-80
2022/08/18 09:41:54;;;;;;;12.50;6.03;;;;;;;36.00;25.33;99304.62;7631564;32;37124;-81
2022/08/18 09:46:11;;;;;;;16.15;5.62;;;;;;;35.97;25.33;99299.87;7630551;32;39280;-80
2022/08/18 09:50:27;;;;;;;11.02;5.12;;;;;;;36.25;25.25;99292.41;7630029;32;39948;-78
2022/08/18 09:55:06;;;;;;;10.32;5.40;;;;;;;36.10;25.07;99275.09;7614081;32;37930;-79
2022/08/18 09:59:46;;;;;;;11.12;5.40;;;;;;;36.37;24.42;99265.22;7616945;32;37619;-78
2022/08/18 10:04:14;;;;;;;14.90;5.90;;;;;;;36.36;24.70;99255.13;7622458;32;40089;-80
2022/08/18 10:09:00;;;;;;;15.18;5.80;;;;;;;36.26;24.69;99238.03;7630238;32;40118;-79
2022/08/18 10:13:54;;;;;;;11.50;5.62;;;;;;;36.72;24.57;99239.63;7619831;32;37622;-78
2022/08/18 10:18:29;;;;;;;11.60;5.18;;;;;;;37.23;23.38;99227.88;7630392;32;36793;-78
2022/08/18 10:22:48;;;;;;;12.00;5.25;;;;;;;37.17;23.22;99221.19;7629360;32;40069;-78
2022/08/18 10:27:28;;;;;;;13.27;5.55;;;;;;;37.15;23.31;99238.72;7624527;32;40121;-77
2022/08/18 10:31:56;;;;;;;7.72;5.15;;;;;;;37.73;22.34;99236.38;7628344;32;37894;-77
2022/08/18 10:36:31;;;;;;;19.23;5.62;;;;;;;37.93;21.91;99233.88;7630306;32;37948;-77
2022/08/18 10:41:03;;;;;;;9.60;5.37;;;;;;;38.09;21.51;99240.50;7615240;32;39652;-78
2022/08/18 10:45:52;;;;;;;9.55;4.78;;;;;;;38.19;21.24;99238.44;7613392;32;41132;-80
2022/08/18 10:50:29;;;;;;;9.48;4.85;;;;;;;37.97;21.75;99244.31;7631024;32;38009;-78
2022/08/18 10:55:01;;;;;;;7.05;4.75;;;;;;;38.09;20.99;99223.44;7620152;32;38329;-80
2022/08/18 10:59:49;;;;;;;11.30;4.97;;;;;;;37.82;21.20;99227.84;7633488;32;39889;-79
2022/08/18 11:04:31;;;;;;;8.55;4.28;;;;;;;38.43;20.43;99207.28;7627337;32;40025;-79
2022/08/18 11:08:56;;;;;;;8.95;4.53;;;;;;;38.73;19.70;99219.72;7616816;32;38091;-77
2022/08/18 11:13:36;;;;;;;13.80;4.55;;;;;;;39.13;19.03;99218.63;7631530;32;37680;-78
2022/08/18 11:18:27;;;;;;;14.05;4.80;;;;;;;39.49;18.91;99221.78;7632168;32;39313;-79
2022/08/18 11:22:56;;;;;;;8.02;4.50;;;;;;;39.40;18.53;99203.44;7628426;32;38461;-78
2022/08/18 11:27:26;;;;;;;7.55;3.72;;;;;;;39.95;17.99;99208.00;7629625;32;38034;-78
2022/08/18 11:31:44;;;;;;;10.48;4.55;;;;;;;39.59;18.28;99198.41;7628926;32;36826;-80
2022/08/18 11:36:07;;;;;;;14.05;4.28;;;;;;;39.82;17.87;99198.88;7579294;32;39263;-77
2022/08/18 11:40:43;;;;;;;8.50;3.78;;;;;;;40.35;16.83;99183.03;7591976;32;41429;-78
2022/08/18 11:45:22;;;;;;;11.18;4.12;;;;;;;40.10;17.68;99165.22;7605918;32;38216;-77
2022/08/18 11:49:55;;;;;;;13.53;4.20;;;;;;;40.05;17.63;99176.50;7599348;32;242710;-78
2022/08/18 11:54:20;;;;;;;7.80;4.12;;;;;;;40.57;16.64;99165.53;7606545;32;40081;-77
2022/08/18 11:58:44;;;;;;;11.98;4.93;;;;;;;40.66;16.35;99153.19;7606687;32;39892;-77
2022/08/18 12:03:27;;;;;;;8.20;4.30;;;;;;;40.38;15.65;99147.00;7606199;32;37981;-77
2022/08/18 12:07:43;;;;;;;19.55;4.22;;;;;;;39.84;16.89;99155.59;7606505;32;37158;-77
2022/08/18 12:12:26;;;;;;;6.57;3.22;;;;;;;40.20;16.69;99143.06;7605990;32;39089;-77
2022/08/18 12:17:03;;;;;;;8.57;3.53;;;;;;;40.21;15.97;99141.78;7595139;32;40323;-77
2022/08/18 12:21:21;;;;;;;9.07;4.30;;;;;;;40.62;16.18;99127.69;7606261;32;38835;-78
2022/08/18 12:25:37;;;;;;;8.32;3.50;;;;;;;40.30;16.24;99133.13;7606309;32;37787;-77
2022/08/18 12:29:57;;;;;;;12.32;4.60;;;;;;;40.54;15.62;99123.69;7606281;32;40125;-77
2022/08/18 12:34:13;;;;;;;9.48;4.05;;;;;;;41.23;15.90;99117.66;7606215;32;40262;-76
2022/08/18 12:38:32;;;;;;;11.12;3.33;;;;;;;41.13;15.65;99116.22;7606243;32;37927;-79
2022/08/18 12:42:51;;;;;;;4.93;2.75;;;;;;;41.66;14.07;99115.09;7606264;32;37236;-78
2022/08/18 12:47:13;;;;;;;5.60;3.35;;;;;;;40.93;13.32;99120.62;7606227;32;39067;-78
2022/08/18 12:51:30;;;;;;;4.90;3.08;;;;;;;41.24;12.91;99122.09;7605953;32;39918;-78
2022/08/18 12:55:47;;;;;;;4.12;2.78;;;;;;;41.60;13.61;99128.53;7605754;32;37785;-79
2022/08/18 13:00:07;;;;;;;3.90;2.60;;;;;;;41.48;13.29;99134.13;7592780;32;37215;-79
2022/08/18 13:04:30;;;;;;;5.28;2.70;;;;;;;41.33;12.98;99138.34;7606331;32;39246;-79
2022/08/18 13:08:47;;;;;;;7.55;3.05;;;;;;;40.49;13.18;99148.00;7606055;32;40005;-79
2022/08/18 13:13:06;;;;;;;5.43;2.78;;;;;;;40.52;13.31;99140.53;7604874;32;37714;-77
2022/08/18 13:17:24;;;;;;;4.68;3.03;;;;;;;38.84;14.80;99163.03;7605605;32;37074;-78
2022/08/18 13:21:48;;;;;;;4.20;2.90;;;;;;;39.38;14.41;99160.38;7605708;32;39275;-80
2022/08/18 13:26:08;;;;;;;5.50;2.60;;;;;;;40.06;13.72;99155.28;7605720;32;39742;-80
2022/08/18 13:30:25;;;;;;;3.58;2.50;;;;;;;39.33;13.76;99154.56;7605610;32;38639;-79
2022/08/18 13:34:47;;;;;;;11.18;3.10;;;;;;;39.79;13.87;99148.50;7605569;32;36805;-78
2022/08/18 13:39:10;;;;;;;7.62;2.67;;;;;;;39.36;13.16;99134.41;7605391;32;39406;-80
2022/08/18 13:43:34;;;;;;;4.10;2.70;;;;;;;39.93;13.77;99119.25;7605436;32;39900;-78
2022/08/18 13:47:53;;;;;;;6.18;3.00;;;;;;;40.18;13.24;99111.38;7605227;32;38672;-78
2022/08/18 13:52:13;;;;;;;7.05;3.40;;;;;;;40.79;13.26;99122.22;7605168;32;37144;-80
2022/08/18 13:56:49;;;;;;;5.00;3.08;;;;;;;40.69;13.48;99133.00;7605158;32;39011;-79
2022/08/18 14:01:10;;;;;;;4.60;2.90;;;;;;;41.03;13.53;99127.00;7604898;32;42258;-78
2022/08/18 14:05:47;;;;;;;5.70;3.22;;;;;;;41.75;12.53;99139.91;7593628;32;38308;-79
2022/08/18 14:10:07;;;;;;;15.20;3.37;;;;;;;41.58;12.69;99120.44;7621367;32;36950;-79
2022/08/18 14:14:28;;;;;;;;;;;;;;;42.20;12.34;99123.97;7614965;32;39496;-79
2022/08/18 14:26:47;;;;;;;7.93;2.95;;;;;;;42.65;12.20;99134.28;7630365;32;40318;-79
2022/08/18 14:28:08;;;;;;;7.47;3.35;;;;;;;42.61;11.58;99145.97;7633678;32;37421;-78
2022/08/18 14:32:30;;;;;;;6.72;2.87;;;;;;;42.73;11.60;99146.84;7633834;32;39852;-78
2022/08/18 14:36:51;;;;;;;7.55;2.95;;;;;;;42.65;11.87;99148.59;7621346;32;40192;-78
2022/08/18 14:41:10;;;;;;;6.50;3.00;;;;;;;42.59;12.45;99146.47;7633576;32;37868;-76
2022/08/18 14:45:28;;;;;;;4.70;2.83;;;;;;;42.32;12.65;99141.28;7620390;32;37025;-77
2022/08/18 14:49:50;;;;;;;7.18;3.30;;;;;;;41.85;12.55;99133.53;7632741;32;39435;-77
2022/08/18 14:54:07;;;;;;;7.07;3.03;;;;;;;42.40;12.46;99133.81;7632319;32;40838;-77
2022/08/18 14:58:26;;;;;;;6.47;2.95;;;;;;;42.51;12.49;99124.53;7630501;32;38599;-76
2022/08/18 15:02:45;;;;;;;7.05;3.33;;;;;;;42.46;12.57;99117.44;7632576;32;36882;-76
2022/08/18 15:07:01;;;;;;;6.10;3.00;;;;;;;42.53;12.70;99128.44;7632356;32;39478;-76
2022/08/18 15:11:24;;;;;;;6.32;3.33;;;;;;;42.35;12.81;99106.69;7630702;32;39068;-78
2022/08/18 15:15:42;;;;;;;9.60;3.42;;;;;;;42.26;12.71;99114.66;7632127;32;37567;-79
2022/08/18 15:20:08;;;;;;;6.60;3.25;;;;;;;42.51;12.73;99116.72;7631007;32;35898;-80
2022/08/18 15:29:06;;;;;;;7.10;3.20;;;;;;;41.36;13.99;99129.56;7631109;32;39980;-79
2022/08/18 15:33:24;;;;;;;8.83;3.40;;;;;;;41.72;13.51;99118.03;7631934;32;38456;-80
2022/08/18 15:37:48;;;;;;;8.43;3.40;;;;;;;41.78;14.06;99125.37;7631577;32;36999;-79
2022/08/18 15:42:10;;;;;;;5.65;3.28;;;;;;;41.61;13.66;99130.88;7631894;32;39333;-80
2022/08/18 15:46:31;;;;;;;10.57;3.37;;;;;;;41.57;13.71;99123.81;7631783;32;40244;-78
2022/08/18 15:50:48;;;;;;;7.37;3.12;;;;;;;41.26;13.67;99134.63;7631557;32;38618;-80
2022/08/18 15:55:06;;;;;;;11.32;3.70;;;;;;;41.20;14.13;99130.88;7631652;32;37429;-79
2022/08/18 15:59:25;;;;;;;9.90;4.37;;;;;;;41.10;14.13;99132.28;7631827;32;38695;-77
2022/08/18 16:03:54;;;;;;;8.35;3.22;;;;;;;41.14;14.14;99132.06;7631183;32;41003;-80
2022/08/18 16:08:11;;;;;;;9.68;3.37;;;;;;;41.16;13.56;99118.88;7631497;32;38907;-79
2022/08/18 16:12:27;;;;;;;13.45;7.95;;;;;;;40.45;14.17;99127.44;7631372;32;37014;-78
2022/08/18 16:16:44;;;;;;;7.50;3.58;;;;;;;40.23;14.53;99127.03;7631510;32;39502;-79
2022/08/18 16:21:09;;;;;;;7.30;3.30;;;;;;;39.91;14.64;99127.50;7629510;32;40709;-79
2022/08/18 16:25:26;;;;;;;6.30;3.08;;;;;;;39.20;15.53;99129.91;7630066;32;38067;-79
2022/08/18 16:29:42;;;;;;;11.12;3.53;;;;;;;39.33;16.04;99128.91;7631511;32;36824;-79
2022/08/18 16:33:59;;;;;;;6.12;2.80;;;;;;;38.94;16.07;99137.34;7631222;32;39327;-78
2022/08/18 16:38:15;;;;;;;8.95;2.90;;;;;;;38.73;16.03;99137.13;7631305;32;40612;-79
2022/08/18 16:42:31;;;;;;;14.63;3.28;;;;;;;38.50;16.21;99133.72;7631195;32;38203;-79
2022/08/18 16:46:50;;;;;;;9.77;3.15;;;;;;;38.31;16.07;99137.91;7630187;32;37106;-79
2022/08/18 16:51:06;;;;;;;10.15;2.97;;;;;;;38.24;16.80;99132.53;7631251;32;39075;-79
2022/08/18 16:55:23;;;;;;;7.32;3.00;;;;;;;38.41;16.99;99122.38;7630935;32;40147;-80
2022/08/18 17:04:18;;;;;;;11.40;3.80;;;;;;;38.10;16.34;99114.84;7632280;32;36974;-79
2022/08/18 17:08:36;;;;;;;8.48;2.67;;;;;;;37.98;16.40;99112.97;7632526;32;37330;-78
2022/08/18 17:12:52;;;;;;;5.28;2.35;;;;;;;37.96;17.23;99101.25;7631794;32;40820;-80
2022/08/18 17:17:08;;;;;;;6.53;3.03;;;;;;;37.46;18.10;99087.22;7631888;32;37987;-79
2022/08/18 17:21:28;;;;;;;12.25;3.55;;;;;;;37.37;17.68;99085.16;7631948;32;38016;-79
2022/08/18 17:25:45;;;;;;;8.45;3.25;;;;;;;36.91;17.92;99081.47;7631893;32;40586;-79
2022/08/18 17:30:17;;;;;;;10.07;3.20;;;;;;;36.86;18.16;99088.56;7631710;32;40823;-79
2022/08/18 17:34:40;;;;;;;7.62;2.95;;;;;;;36.77;18.37;99082.84;7631588;32;37975;-79
2022/08/18 17:39:01;;;;;;;10.68;3.05;;;;;;;36.48;18.75;99078.31;7631764;32;37688;-79
2022/08/18 17:43:22;;;;;;;5.37;2.60;;;;;;;36.26;19.10;99053.63;7631623;32;39146;-77
2022/08/18 17:47:57;;;;;;;5.87;3.05;;;;;;;36.16;19.27;99045.53;7618615;32;37865;-78
2022/08/18 17:52:14;;;;;;;6.40;2.83;;;;;;;35.89;19.63;99049.78;7631322;32;38133;-78
2022/08/18 17:57:04;;;;;;;8.55;2.87;;;;;;;35.43;20.26;99058.75;7606160;32;37138;-78
2022/08/18 18:01:22;;;;;;;9.07;3.55;;;;;;;35.18;20.76;99071.69;7619943;32;38735;-78
2022/08/18 18:09:18;;;;;;;7.55;3.25;;;;;;;34.91;21.15;99099.75;7834384;32;210032;-77
2022/08/18 18:13:34;;;;;;;9.88;3.12;;;;;;;34.70;21.84;99090.69;7806315;32;40550;-77
2022/08/18 18:17:50;;;;;;;12.40;3.83;;;;;;;34.47;22.44;99100.31;7812481;32;37720;-77
2022/08/18 18:22:18;;;;;;;7.65;2.92;;;;;;;34.19;23.55;99087.81;7786247;32;37720;-76
2022/08/18 18:26:37;;;;;;;7.55;3.15;;;;;;;34.11;22.53;99109.84;7785031;32;38682;-79
2022/08/18 18:30:59;;;;;;;9.95;3.30;;;;;;;33.76;23.73;99120.97;7793121;32;40095;-77
2022/08/18 18:35:21;;;;;;;9.85;3.22;;;;;;;33.67;23.76;99118.78;7789214;32;38641;-79
2022/08/18 18:39:52;;;;;;;15.48;3.80;;;;;;;33.60;24.38;99135.91;7785175;32;35549;-76
2022/08/18 18:44:11;;;;;;;7.55;4.18;;;;;;;33.28;24.95;99117.78;7777656;32;39084;-77
2022/08/18 18:48:32;;;;;;;9.60;3.75;;;;;;;33.27;24.55;99115.38;7799121;32;40746;-80
2022/08/18 18:53:15;;;;;;;13.20;4.22;;;;;;;33.15;24.50;99125.41;7794571;32;38033;-79
2022/08/18 18:57:49;;;;;;;8.82;3.83;;;;;;;33.02;24.64;99127.31;7791244;32;37735;-82
2022/08/18 19:02:30;;;;;;;9.55;3.90;;;;;;;32.98;24.75;99132.22;7810660;32;39942;-80
2022/08/18 19:07:09;;;;;;;9.93;4.40;;;;;;;32.74;25.52;99129.59;7780720;32;40899;-80
2022/08/18 19:11:51;;;;;;;8.68;4.15;;;;;;;32.59;26.05;99125.47;7784865;32;38581;-82
2022/08/18 19:16:31;;;;;;;7.97;4.30;;;;;;;32.52;26.03;99118.75;7801953;32;36854;-82
2022/08/18 19:20:52;;;;;;;10.07;3.90;;;;;;;32.51;25.19;99130.47;7766534;32;37850;-81
2022/08/18 19:25:40;;;;;;;7.87;4.18;;;;;;;32.41;25.99;99129.50;7765615;32;41282;-81
2022/08/18 19:29:59;;;;;;;8.10;4.22;;;;;;;32.19;26.78;99129.97;7753810;32;37821;-82
2022/08/18 19:34:24;;;;;;;12.32;4.70;;;;;;;31.99;27.38;99126.31;7752785;32;36931;-82
2022/08/18 19:39:22;;;;;;;11.18;4.25;;;;;;;31.84;27.42;99120.22;7766285;32;39974;-79
2022/08/18 19:43:53;;;;;;;10.43;4.70;;;;;;;31.78;27.63;99108.63;7765904;32;39943;-79
2022/08/18 19:48:19;;;;;;;12.15;5.30;;;;;;;31.78;27.29;99108.63;7765914;32;37817;-77
2022/08/18 19:52:54;;;;;;;9.50;4.78;;;;;;;31.66;27.63;99105.66;7752023;32;37704;-77
2022/08/18 19:57:27;;;;;;;13.75;5.28;;;;;;;31.54;27.68;99110.69;7766083;32;39978;-79
2022/08/18 20:02:17;;;;;;;13.60;5.20;;;;;;;31.58;27.65;99110.63;7753890;32;40754;-77
2022/08/18 20:07:00;;;;;;;11.05;4.53;;;;;;;31.61;27.15;99112.59;7757008;32;38697;-79
2022/08/18 20:12:00;;;;;;;11.00;5.15;;;;;;;31.39;27.49;99114.97;7775176;32;36892;-78
2022/08/18 20:16:28;;;;;;;10.75;6.03;;;;;;;31.36;27.77;99113.81;7763582;32;38997;-79
2022/08/18 20:21:19;;;;;;;7.93;4.85;;;;;;;31.52;27.51;99112.38;7778928;32;40546;-78
2022/08/18 20:25:43;;;;;;;8.90;5.28;;;;;;;31.54;27.51;99118.34;7765577;32;38372;-78
2022/08/18 20:30:18;;;;;;;10.90;5.75;;;;;;;31.37;27.95;99109.78;7764736;32;36736;-78
2022/08/18 20:34:35;;;;;;;9.65;5.87;;;;;;;31.53;27.75;99113.94;7770886;32;39099;-78
2022/08/18 20:38:58;;;;;;;10.52;5.43;;;;;;;31.42;28.17;99114.91;7792626;32;39854;-78
2022/08/18 20:43:33;;;;;;;8.55;5.40;;;;;;;30.94;29.00;99109.72;7792560;32;37804;-79
2022/08/18 20:48:34;;;;;;;11.93;5.53;;;;;;;31.36;28.51;99115.84;7778802;32;36838;-78
2022/08/18 20:53:01;;;;;;;8.90;5.10;;;;;;;31.50;28.31;99128.91;7773568;32;39096;-77
2022/08/18 20:57:22;;;;;;;11.12;5.55;;;;;;;31.34;28.58;99138.81;7765274;32;40796;-77
2022/08/18 21:01:39;;;;;;;12.75;5.65;;;;;;;31.26;28.80;99132.50;7765151;32;37649;-78
2022/08/18 21:05:57;;;;;;;12.00;5.93;;;;;;;31.11;29.26;99141.63;7764835;32;36996;-78